sensor_id;sensor_type;location;lat;lon;timestamp;P1;durP1;ratioP1;P2;durP2;ratioP2
29954;SDS011;68448;51.188;6.868;2023-04-24T00:00:05;2.27;;;1.70;;
29954;SDS011;68448;51.188;6.868;2023-04-24T00:02:33;1.50;;;1.40;;
29954;SDS011;68448;51.188;6.868;2023-04-24T00:05:02;4.17;;;1.30;;
29954;SDS011;68448;51.188;6.868;2023-04-24T00:07:29;1.67;;;1.50;;
29954;SDS011;68448;51.188;6.868;2023-04-24T00:09:56;1.90;;;1.40;;
29954;SDS011;68448;51.188;6.868;2023-04-24T00:12:23;5.47;;;2.00;;
29954;SDS011;68448;51.188;6.868;2023-04-24T00:14:50;2.53;;;1.60;;
29954;SDS011;68448;51.188;6.868;2023-04-24T00:17:17;1.93;;;1.73;;
29954;SDS011;68448;51.188;6.868;2023-04-24T00:19:44;2.00;;;1.80;;
29954;SDS011;68448;51.188;6.868;2023-04-24T00:22:13;3.10;;;1.63;;
29954;SDS011;68448;51.188;6.868;2023-04-24T00:24:40;3.33;;;2.00;;
29954;SDS011;68448;51.188;6.868;2023-04-24T00:27:07;3.67;;;1.70;;
29954;SDS011;68448;51.188;6.868;2023-04-24T00:29:34;2.57;;;2.00;;
29954;SDS011;68448;51.188;6.868;2023-04-24T00:32:01;15.03;;;2.17;;
29954;SDS011;68448;51.188;6.868;2023-04-24T00:34:29;3.67;;;1.80;;
29954;SDS011;68448;51.188;6.868;2023-04-24T00:36:56;2.63;;;1.77;;
29954;SDS011;68448;51.188;6.868;2023-04-24T00:39:24;1.67;;;1.57;;
29954;SDS011;68448;51.188;6.868;2023-04-24T00:41:51;2.50;;;1.50;;
29954;SDS011;68448;51.188;6.868;2023-04-24T00:44:19;1.63;;;1.53;;
29954;SDS011;68448;51.188;6.868;2023-04-24T00:46:46;1.57;;;1.47;;
29954;SDS011;68448;51.188;6.868;2023-04-24T00:49:13;3.47;;;1.73;;
29954;SDS011;68448;51.188;6.868;2023-04-24T00:51:40;3.13;;;1.50;;
29954;SDS011;68448;51.188;6.868;2023-04-24T00:54:07;2.13;;;1.90;;
29954;SDS011;68448;51.188;6.868;2023-04-24T00:56:36;2.40;;;1.77;;
29954;SDS011;68448;51.188;6.868;2023-04-24T00:59:03;2.00;;;1.87;;
29954;SDS011;68448;51.188;6.868;2023-04-24T01:01:30;3.13;;;1.47;;
29954;SDS011;68448;51.188;6.868;2023-04-24T01:03:58;1.60;;;1.50;;
29954;SDS011;68448;51.188;6.868;2023-04-24T01:06:27;3.53;;;1.87;;
29954;SDS011;68448;51.188;6.868;2023-04-24T01:08:54;2.60;;;2.07;;
29954;SDS011;68448;51.188;6.868;2023-04-24T01:11:21;3.37;;;1.83;;
29954;SDS011;68448;51.188;6.868;2023-04-24T01:13:49;2.83;;;2.30;;
29954;SDS011;68448;51.188;6.868;2023-04-24T01:16:16;4.07;;;2.20;;
29954;SDS011;68448;51.188;6.868;2023-04-24T01:18:44;3.27;;;2.00;;
29954;SDS011;68448;51.188;6.868;2023-04-24T01:21:11;4.53;;;2.63;;
29954;SDS011;68448;51.188;6.868;2023-04-24T01:23:41;3.50;;;3.03;;
29954;SDS011;68448;51.188;6.868;2023-04-24T01:26:09;7.67;;;3.60;;
29954;SDS011;68448;51.188;6.868;2023-04-24T01:28:36;4.13;;;3.30;;
29954;SDS011;68448;51.188;6.868;2023-04-24T01:31:04;9.80;;;3.30;;
29954;SDS011;68448;51.188;6.868;2023-04-24T01:33:32;4.10;;;3.70;;
29954;SDS011;68448;51.188;6.868;2023-04-24T01:35:59;5.90;;;4.33;;
29954;SDS011;68448;51.188;6.868;2023-04-24T01:38:26;6.50;;;4.17;;
29954;SDS011;68448;51.188;6.868;2023-04-24T01:40:55;6.30;;;4.00;;
29954;SDS011;68448;51.188;6.868;2023-04-24T01:43:23;7.80;;;5.40;;
29954;SDS011;68448;51.188;6.868;2023-04-24T01:45:50;10.67;;;4.80;;
29954;SDS011;68448;51.188;6.868;2023-04-24T01:48:18;5.30;;;4.60;;
29954;SDS011;68448;51.188;6.868;2023-04-24T01:50:45;7.97;;;5.07;;
29954;SDS011;68448;51.188;6.868;2023-04-24T01:53:12;5.80;;;4.77;;
29954;SDS011;68448;51.188;6.868;2023-04-24T01:55:39;6.93;;;4.50;;
29954;SDS011;68448;51.188;6.868;2023-04-24T01:58:08;11.10;;;4.90;;
29954;SDS011;68448;51.188;6.868;2023-04-24T02:00:35;6.10;;;4.90;;
29954;SDS011;68448;51.188;6.868;2023-04-24T02:03:02;6.20;;;4.80;;
29954;SDS011;68448;51.188;6.868;2023-04-24T02:05:30;6.10;;;5.07;;
29954;SDS011;68448;51.188;6.868;2023-04-24T02:07:57;7.10;;;5.03;;
29954;SDS011;68448;51.188;6.868;2023-04-24T02:10:24;9.97;;;5.70;;
29954;SDS011;68448;51.188;6.868;2023-04-24T02:12:51;8.63;;;5.50;;
29954;SDS011;68448;51.188;6.868;2023-04-24T02:15:23;8.40;;;5.47;;
29954;SDS011;68448;51.188;6.868;2023-04-24T02:17:50;6.77;;;5.13;;
29954;SDS011;68448;51.188;6.868;2023-04-24T02:20:17;8.93;;;5.77;;
29954;SDS011;68448;51.188;6.868;2023-04-24T02:22:44;9.73;;;6.40;;
29954;SDS011;68448;51.188;6.868;2023-04-24T02:25:11;9.23;;;6.03;;
29954;SDS011;68448;51.188;6.868;2023-04-24T02:27:38;10.03;;;7.20;;
29954;SDS011;68448;51.188;6.868;2023-04-24T02:30:06;10.70;;;7.03;;
29954;SDS011;68448;51.188;6.868;2023-04-24T02:32:34;11.50;;;6.70;;
29954;SDS011;68448;51.188;6.868;2023-04-24T02:35:01;10.23;;;7.00;;
29954;SDS011;68448;51.188;6.868;2023-04-24T02:37:29;8.53;;;6.57;;
29954;SDS011;68448;51.188;6.868;2023-04-24T02:39:56;12.43;;;8.07;;
29954;SDS011;68448;51.188;6.868;2023-04-24T02:42:23;9.27;;;6.77;;
29954;SDS011;68448;51.188;6.868;2023-04-24T02:44:50;9.80;;;8.00;;
29954;SDS011;68448;51.188;6.868;2023-04-24T02:47:17;13.17;;;7.63;;
29954;SDS011;68448;51.188;6.868;2023-04-24T02:49:46;10.33;;;7.07;;
29954;SDS011;68448;51.188;6.868;2023-04-24T02:52:13;11.60;;;7.40;;
29954;SDS011;68448;51.188;6.868;2023-04-24T02:54:40;16.10;;;8.10;;
29954;SDS011;68448;51.188;6.868;2023-04-24T02:57:07;11.13;;;7.50;;
29954;SDS011;68448;51.188;6.868;2023-04-24T02:59:37;14.47;;;8.03;;
29954;SDS011;68448;51.188;6.868;2023-04-24T03:02:04;12.33;;;7.97;;
29954;SDS011;68448;51.188;6.868;2023-04-24T03:04:31;13.13;;;7.70;;
29954;SDS011;68448;51.188;6.868;2023-04-24T03:07:00;12.67;;;7.93;;
29954;SDS011;68448;51.188;6.868;2023-04-24T03:09:27;10.27;;;8.30;;
29954;SDS011;68448;51.188;6.868;2023-04-24T03:11:54;17.03;;;8.10;;
29954;SDS011;68448;51.188;6.868;2023-04-24T03:14:21;16.50;;;8.97;;
29954;SDS011;68448;51.188;6.868;2023-04-24T03:16:48;12.33;;;8.23;;
29954;SDS011;68448;51.188;6.868;2023-04-24T03:19:15;14.73;;;8.13;;
29954;SDS011;68448;51.188;6.868;2023-04-24T03:21:53;13.13;;;8.70;;
29954;SDS011;68448;51.188;6.868;2023-04-24T03:24:22;13.70;;;8.30;;
29954;SDS011;68448;51.188;6.868;2023-04-24T03:26:49;14.63;;;7.20;;
29954;SDS011;68448;51.188;6.868;2023-04-24T03:29:41;13.53;;;8.70;;
29954;SDS011;68448;51.188;6.868;2023-04-24T03:32:09;16.43;;;8.20;;
29954;SDS011;68448;51.188;6.868;2023-04-24T03:34:37;12.93;;;7.77;;
29954;SDS011;68448;51.188;6.868;2023-04-24T03:37:05;11.30;;;7.90;;
29954;SDS011;68448;51.188;6.868;2023-04-24T03:39:36;15.93;;;9.57;;
29954;SDS011;68448;51.188;6.868;2023-04-24T03:42:03;15.10;;;8.10;;
29954;SDS011;68448;51.188;6.868;2023-04-24T03:44:42;15.70;;;8.00;;
29954;SDS011;68448;51.188;6.868;2023-04-24T03:47:09;9.90;;;7.37;;
29954;SDS011;68448;51.188;6.868;2023-04-24T03:49:37;13.63;;;7.80;;
29954;SDS011;68448;51.188;6.868;2023-04-24T03:52:04;14.03;;;7.40;;
29954;SDS011;68448;51.188;6.868;2023-04-24T03:54:31;14.73;;;7.93;;
29954;SDS011;68448;51.188;6.868;2023-04-24T03:57:00;12.87;;;8.07;;
29954;SDS011;68448;51.188;6.868;2023-04-24T03:59:29;15.33;;;10.47;;
29954;SDS011;68448;51.188;6.868;2023-04-24T04:02:07;14.87;;;10.00;;
29954;SDS011;68448;51.188;6.868;2023-04-24T04:04:34;11.93;;;8.80;;
29954;SDS011;68448;51.188;6.868;2023-04-24T04:07:02;13.33;;;7.50;;
29954;SDS011;68448;51.188;6.868;2023-04-24T04:09:29;17.40;;;9.60;;
29954;SDS011;68448;51.188;6.868;2023-04-24T04:11:56;13.93;;;8.50;;
29954;SDS011;68448;51.188;6.868;2023-04-24T04:14:25;14.70;;;8.50;;
29954;SDS011;68448;51.188;6.868;2023-04-24T04:16:52;10.50;;;6.80;;
29954;SDS011;68448;51.188;6.868;2023-04-24T04:19:20;16.00;;;8.47;;
29954;SDS011;68448;51.188;6.868;2023-04-24T04:21:48;11.63;;;7.50;;
29954;SDS011;68448;51.188;6.868;2023-04-24T04:24:25;8.63;;;6.83;;
29954;SDS011;68448;51.188;6.868;2023-04-24T04:26:52;13.73;;;8.60;;
29954;SDS011;68448;51.188;6.868;2023-04-24T04:29:28;19.57;;;8.83;;
29954;SDS011;68448;51.188;6.868;2023-04-24T04:31:55;11.63;;;7.77;;
29954;SDS011;68448;51.188;6.868;2023-04-24T04:34:22;11.13;;;8.73;;
29954;SDS011;68448;51.188;6.868;2023-04-24T04:36:50;11.40;;;7.67;;
29954;SDS011;68448;51.188;6.868;2023-04-24T04:39:40;17.07;;;9.53;;
29954;SDS011;68448;51.188;6.868;2023-04-24T04:42:16;14.07;;;9.33;;
29954;SDS011;68448;51.188;6.868;2023-04-24T04:44:45;12.33;;;8.40;;
29954;SDS011;68448;51.188;6.868;2023-04-24T04:47:16;12.60;;;9.00;;
29954;SDS011;68448;51.188;6.868;2023-04-24T04:49:44;11.60;;;8.43;;
29954;SDS011;68448;51.188;6.868;2023-04-24T04:52:17;13.97;;;8.83;;
29954;SDS011;68448;51.188;6.868;2023-04-24T04:54:48;21.97;;;10.00;;
29954;SDS011;68448;51.188;6.868;2023-04-24T04:57:15;11.60;;;8.50;;
29954;SDS011;68448;51.188;6.868;2023-04-24T04:59:43;13.83;;;7.73;;
29954;SDS011;68448;51.188;6.868;2023-04-24T05:02:19;15.70;;;8.70;;
29954;SDS011;68448;51.188;6.868;2023-04-24T05:04:46;15.80;;;8.40;;
29954;SDS011;68448;51.188;6.868;2023-04-24T05:07:14;15.87;;;8.17;;
29954;SDS011;68448;51.188;6.868;2023-04-24T05:09:46;10.27;;;7.87;;
29954;SDS011;68448;51.188;6.868;2023-04-24T05:12:13;9.13;;;7.07;;
29954;SDS011;68448;51.188;6.868;2023-04-24T05:14:48;9.37;;;6.97;;
29954;SDS011;68448;51.188;6.868;2023-04-24T05:17:16;9.23;;;6.43;;
29954;SDS011;68448;51.188;6.868;2023-04-24T05:19:45;8.83;;;6.50;;
29954;SDS011;68448;51.188;6.868;2023-04-24T05:22:13;10.80;;;6.63;;
29954;SDS011;68448;51.188;6.868;2023-04-24T05:24:47;15.30;;;7.50;;
29954;SDS011;68448;51.188;6.868;2023-04-24T05:27:33;7.90;;;6.50;;
29954;SDS011;68448;51.188;6.868;2023-04-24T05:30:04;7.27;;;5.93;;
29954;SDS011;68448;51.188;6.868;2023-04-24T05:32:33;8.87;;;6.63;;
29954;SDS011;68448;51.188;6.868;2023-04-24T05:35:01;9.10;;;5.60;;
29954;SDS011;68448;51.188;6.868;2023-04-24T05:37:28;8.40;;;6.47;;
29954;SDS011;68448;51.188;6.868;2023-04-24T05:39:55;11.60;;;7.40;;
29954;SDS011;68448;51.188;6.868;2023-04-24T05:42:22;9.17;;;7.27;;
29954;SDS011;68448;51.188;6.868;2023-04-24T05:44:50;11.47;;;6.87;;
29954;SDS011;68448;51.188;6.868;2023-04-24T05:47:19;12.27;;;6.57;;
29954;SDS011;68448;51.188;6.868;2023-04-24T05:49:46;16.67;;;9.27;;
29954;SDS011;68448;51.188;6.868;2023-04-24T05:52:14;15.60;;;9.33;;
29954;SDS011;68448;51.188;6.868;2023-04-24T05:54:42;14.40;;;9.40;;
29954;SDS011;68448;51.188;6.868;2023-04-24T05:57:11;12.17;;;8.67;;
29954;SDS011;68448;51.188;6.868;2023-04-24T05:59:49;15.27;;;10.70;;
29954;SDS011;68448;51.188;6.868;2023-04-24T06:02:18;16.20;;;9.10;;
29954;SDS011;68448;51.188;6.868;2023-04-24T06:04:46;14.47;;;9.27;;
29954;SDS011;68448;51.188;6.868;2023-04-24T06:07:15;13.13;;;8.47;;
29954;SDS011;68448;51.188;6.868;2023-04-24T06:09:42;14.40;;;7.70;;
29954;SDS011;68448;51.188;6.868;2023-04-24T06:12:10;11.07;;;7.20;;
29954;SDS011;68448;51.188;6.868;2023-04-24T06:14:54;11.80;;;8.60;;
29954;SDS011;68448;51.188;6.868;2023-04-24T06:17:32;9.67;;;6.93;;
29954;SDS011;68448;51.188;6.868;2023-04-24T06:19:59;10.60;;;7.50;;
29954;SDS011;68448;51.188;6.868;2023-04-24T06:22:28;13.70;;;6.63;;
29954;SDS011;68448;51.188;6.868;2023-04-24T06:24:55;9.00;;;6.30;;
29954;SDS011;68448;51.188;6.868;2023-04-24T06:27:23;10.03;;;7.40;;
29954;SDS011;68448;51.188;6.868;2023-04-24T06:29:50;8.60;;;6.53;;
29954;SDS011;68448;51.188;6.868;2023-04-24T06:32:17;10.03;;;6.70;;
29954;SDS011;68448;51.188;6.868;2023-04-24T06:34:44;11.50;;;6.67;;
29954;SDS011;68448;51.188;6.868;2023-04-24T06:37:11;9.40;;;5.50;;
29954;SDS011;68448;51.188;6.868;2023-04-24T06:39:40;9.23;;;5.97;;
29954;SDS011;68448;51.188;6.868;2023-04-24T06:42:07;11.80;;;5.77;;
29954;SDS011;68448;51.188;6.868;2023-04-24T06:44:35;6.30;;;4.70;;
29954;SDS011;68448;51.188;6.868;2023-04-24T06:47:02;9.63;;;6.40;;
29954;SDS011;68448;51.188;6.868;2023-04-24T06:49:29;6.20;;;4.70;;
29954;SDS011;68448;51.188;6.868;2023-04-24T06:51:56;12.17;;;6.40;;
29954;SDS011;68448;51.188;6.868;2023-04-24T06:54:24;10.87;;;6.10;;
29954;SDS011;68448;51.188;6.868;2023-04-24T06:56:52;10.43;;;5.30;;
29954;SDS011;68448;51.188;6.868;2023-04-24T06:59:19;6.07;;;4.77;;
29954;SDS011;68448;51.188;6.868;2023-04-24T07:01:46;9.67;;;6.00;;
29954;SDS011;68448;51.188;6.868;2023-04-24T07:04:13;12.07;;;6.13;;
29954;SDS011;68448;51.188;6.868;2023-04-24T07:06:41;9.97;;;5.37;;
29954;SDS011;68448;51.188;6.868;2023-04-24T07:09:08;9.80;;;5.60;;
29954;SDS011;68448;51.188;6.868;2023-04-24T07:11:35;7.50;;;5.37;;
29954;SDS011;68448;51.188;6.868;2023-04-24T07:14:04;7.23;;;5.10;;
29954;SDS011;68448;51.188;6.868;2023-04-24T07:16:31;7.13;;;5.23;;
29954;SDS011;68448;51.188;6.868;2023-04-24T07:18:58;6.80;;;4.07;;
29954;SDS011;68448;51.188;6.868;2023-04-24T07:21:25;7.77;;;5.27;;
29954;SDS011;68448;51.188;6.868;2023-04-24T07:23:52;8.80;;;5.03;;
29954;SDS011;68448;51.188;6.868;2023-04-24T07:26:19;5.77;;;5.17;;
29954;SDS011;68448;51.188;6.868;2023-04-24T07:28:47;5.87;;;4.50;;
29954;SDS011;68448;51.188;6.868;2023-04-24T07:31:15;5.33;;;3.97;;
29954;SDS011;68448;51.188;6.868;2023-04-24T07:33:42;5.93;;;3.57;;
29954;SDS011;68448;51.188;6.868;2023-04-24T07:36:09;5.53;;;3.27;;
29954;SDS011;68448;51.188;6.868;2023-04-24T07:38:36;3.80;;;2.83;;
29954;SDS011;68448;51.188;6.868;2023-04-24T07:41:03;4.60;;;1.90;;
29954;SDS011;68448;51.188;6.868;2023-04-24T07:43:30;3.40;;;1.93;;
29954;SDS011;68448;51.188;6.868;2023-04-24T07:45:58;2.20;;;1.97;;
29954;SDS011;68448;51.188;6.868;2023-04-24T07:48:26;2.10;;;1.37;;
29954;SDS011;68448;51.188;6.868;2023-04-24T07:50:53;1.43;;;1.33;;
29954;SDS011;68448;51.188;6.868;2023-04-24T07:53:20;3.23;;;1.27;;
29954;SDS011;68448;51.188;6.868;2023-04-24T07:55:47;1.53;;;1.23;;
29954;SDS011;68448;51.188;6.868;2023-04-24T07:58:14;2.13;;;1.17;;
29954;SDS011;68448;51.188;6.868;2023-04-24T08:00:42;1.20;;;1.10;;
29954;SDS011;68448;51.188;6.868;2023-04-24T08:03:09;1.80;;;0.97;;
29954;SDS011;68448;51.188;6.868;2023-04-24T08:05:37;2.00;;;1.20;;
29954;SDS011;68448;51.188;6.868;2023-04-24T08:08:06;1.67;;;1.20;;
29954;SDS011;68448;51.188;6.868;2023-04-24T08:10:33;2.70;;;1.10;;
29954;SDS011;68448;51.188;6.868;2023-04-24T08:13:00;2.20;;;1.30;;
29954;SDS011;68448;51.188;6.868;2023-04-24T08:15:27;1.47;;;0.93;;
29954;SDS011;68448;51.188;6.868;2023-04-24T08:17:54;1.77;;;1.20;;
29954;SDS011;68448;51.188;6.868;2023-04-24T08:20:24;4.87;;;1.63;;
29954;SDS011;68448;51.188;6.868;2023-04-24T08:22:52;1.40;;;1.30;;
29954;SDS011;68448;51.188;6.868;2023-04-24T08:25:19;1.30;;;1.20;;
29954;SDS011;68448;51.188;6.868;2023-04-24T08:27:46;5.03;;;2.10;;
29954;SDS011;68448;51.188;6.868;2023-04-24T08:30:14;10.97;;;2.97;;
29954;SDS011;68448;51.188;6.868;2023-04-24T08:32:41;7.33;;;2.40;;
29954;SDS011;68448;51.188;6.868;2023-04-24T08:35:08;6.40;;;4.33;;
29954;SDS011;68448;51.188;6.868;2023-04-24T08:37:35;8.00;;;4.87;;
29954;SDS011;68448;51.188;6.868;2023-04-24T08:40:05;8.37;;;5.40;;
29954;SDS011;68448;51.188;6.868;2023-04-24T08:42:33;14.97;;;6.23;;
29954;SDS011;68448;51.188;6.868;2023-04-24T08:45:01;6.23;;;4.57;;
29954;SDS011;68448;51.188;6.868;2023-04-24T08:47:28;10.83;;;4.70;;
29954;SDS011;68448;51.188;6.868;2023-04-24T08:49:56;15.73;;;5.43;;
29954;SDS011;68448;51.188;6.868;2023-04-24T08:52:23;8.00;;;5.43;;
29954;SDS011;68448;51.188;6.868;2023-04-24T08:54:52;13.30;;;5.70;;
29954;SDS011;68448;51.188;6.868;2023-04-24T08:57:21;10.07;;;6.70;;
29954;SDS011;68448;51.188;6.868;2023-04-24T08:59:49;7.60;;;5.10;;
29954;SDS011;68448;51.188;6.868;2023-04-24T09:02:16;13.13;;;5.80;;
29954;SDS011;68448;51.188;6.868;2023-04-24T09:04:43;4.93;;;4.00;;
29954;SDS011;68448;51.188;6.868;2023-04-24T09:07:11;7.07;;;4.03;;
29954;SDS011;68448;51.188;6.868;2023-04-24T09:09:39;4.40;;;3.00;;
29954;SDS011;68448;51.188;6.868;2023-04-24T09:12:07;5.83;;;3.40;;
29954;SDS011;68448;51.188;6.868;2023-04-24T09:14:36;5.53;;;3.10;;
29954;SDS011;68448;51.188;6.868;2023-04-24T09:17:03;8.53;;;4.50;;
29954;SDS011;68448;51.188;6.868;2023-04-24T09:19:30;10.60;;;3.43;;
29954;SDS011;68448;51.188;6.868;2023-04-24T09:21:57;6.10;;;4.23;;
29954;SDS011;68448;51.188;6.868;2023-04-24T09:24:24;10.63;;;4.63;;
29954;SDS011;68448;51.188;6.868;2023-04-24T09:26:55;8.13;;;5.07;;
29954;SDS011;68448;51.188;6.868;2023-04-24T09:29:23;7.40;;;4.80;;
29954;SDS011;68448;51.188;6.868;2023-04-24T09:31:51;6.73;;;4.97;;
29954;SDS011;68448;51.188;6.868;2023-04-24T09:34:21;8.67;;;4.70;;
29954;SDS011;68448;51.188;6.868;2023-04-24T09:36:48;11.93;;;5.17;;
29954;SDS011;68448;51.188;6.868;2023-04-24T09:39:15;6.30;;;4.77;;
29954;SDS011;68448;51.188;6.868;2023-04-24T09:41:43;5.03;;;4.27;;
29954;SDS011;68448;51.188;6.868;2023-04-24T09:44:11;8.83;;;4.60;;
29954;SDS011;68448;51.188;6.868;2023-04-24T09:46:39;12.90;;;5.20;;
29954;SDS011;68448;51.188;6.868;2023-04-24T09:49:14;13.10;;;5.20;;
29954;SDS011;68448;51.188;6.868;2023-04-24T09:51:41;7.40;;;5.10;;
29954;SDS011;68448;51.188;6.868;2023-04-24T09:54:13;8.30;;;5.30;;
29954;SDS011;68448;51.188;6.868;2023-04-24T09:56:41;12.77;;;5.90;;
29954;SDS011;68448;51.188;6.868;2023-04-24T09:59:09;11.83;;;6.20;;
29954;SDS011;68448;51.188;6.868;2023-04-24T10:01:36;9.37;;;6.90;;
29954;SDS011;68448;51.188;6.868;2023-04-24T10:04:03;11.97;;;7.03;;
29954;SDS011;68448;51.188;6.868;2023-04-24T10:06:35;18.07;;;8.50;;
29954;SDS011;68448;51.188;6.868;2023-04-24T10:09:02;14.63;;;9.57;;
29954;SDS011;68448;51.188;6.868;2023-04-24T10:11:30;22.43;;;8.70;;
29954;SDS011;68448;51.188;6.868;2023-04-24T10:13:57;11.17;;;7.33;;
29954;SDS011;68448;51.188;6.868;2023-04-24T10:16:24;19.17;;;9.03;;
29954;SDS011;68448;51.188;6.868;2023-04-24T10:18:52;15.73;;;8.40;;
29954;SDS011;68448;51.188;6.868;2023-04-24T10:21:19;17.87;;;9.20;;
29954;SDS011;68448;51.188;6.868;2023-04-24T10:23:47;16.50;;;8.50;;
29954;SDS011;68448;51.188;6.868;2023-04-24T10:26:15;11.40;;;7.67;;
29954;SDS011;68448;51.188;6.868;2023-04-24T10:28:44;15.70;;;9.00;;
29954;SDS011;68448;51.188;6.868;2023-04-24T10:31:11;17.17;;;9.80;;
29954;SDS011;68448;51.188;6.868;2023-04-24T10:33:39;20.47;;;9.40;;
29954;SDS011;68448;51.188;6.868;2023-04-24T10:36:06;14.00;;;8.70;;
29954;SDS011;68448;51.188;6.868;2023-04-24T10:38:34;29.13;;;9.80;;
29954;SDS011;68448;51.188;6.868;2023-04-24T10:41:13;12.90;;;7.33;;
29954;SDS011;68448;51.188;6.868;2023-04-24T10:43:40;20.23;;;9.07;;
29954;SDS011;68448;51.188;6.868;2023-04-24T10:46:07;13.10;;;8.47;;
29954;SDS011;68448;51.188;6.868;2023-04-24T10:48:35;14.30;;;8.37;;
29954;SDS011;68448;51.188;6.868;2023-04-24T10:51:02;14.53;;;6.80;;
29954;SDS011;68448;51.188;6.868;2023-04-24T10:53:30;12.23;;;6.93;;
29954;SDS011;68448;51.188;6.868;2023-04-24T10:55:57;12.87;;;5.47;;
29954;SDS011;68448;51.188;6.868;2023-04-24T10:58:35;13.70;;;6.37;;
29954;SDS011;68448;51.188;6.868;2023-04-24T11:01:02;10.60;;;6.07;;
29954;SDS011;68448;51.188;6.868;2023-04-24T11:03:30;12.10;;;6.57;;
29954;SDS011;68448;51.188;6.868;2023-04-24T11:05:59;8.77;;;5.80;;
29954;SDS011;68448;51.188;6.868;2023-04-24T11:08:27;6.70;;;5.40;;
29954;SDS011;68448;51.188;6.868;2023-04-24T11:10:56;11.07;;;5.90;;
29954;SDS011;68448;51.188;6.868;2023-04-24T11:13:24;16.63;;;7.23;;
29954;SDS011;68448;51.188;6.868;2023-04-24T11:18:38;20.13;;;8.53;;
29954;SDS011;68448;51.188;6.868;2023-04-24T11:21:09;20.77;;;8.60;;
29954;SDS011;68448;51.188;6.868;2023-04-24T11:23:37;14.47;;;7.30;;
29954;SDS011;68448;51.188;6.868;2023-04-24T11:26:10;10.73;;;5.33;;
29954;SDS011;68448;51.188;6.868;2023-04-24T11:28:37;7.70;;;5.40;;
29954;SDS011;68448;51.188;6.868;2023-04-24T11:33:50;17.10;;;5.77;;
29954;SDS011;68448;51.188;6.868;2023-04-24T11:36:18;13.83;;;7.00;;
29954;SDS011;68448;51.188;6.868;2023-04-24T11:38:46;15.00;;;6.43;;
29954;SDS011;68448;51.188;6.868;2023-04-24T11:41:13;14.57;;;5.50;;
29954;SDS011;68448;51.188;6.868;2023-04-24T11:43:40;9.27;;;4.77;;
29954;SDS011;68448;51.188;6.868;2023-04-24T11:46:08;8.50;;;4.80;;
29954;SDS011;68448;51.188;6.868;2023-04-24T11:48:35;11.03;;;4.73;;
29954;SDS011;68448;51.188;6.868;2023-04-24T11:51:04;15.73;;;5.10;;
29954;SDS011;68448;51.188;6.868;2023-04-24T11:53:31;9.10;;;5.00;;
29954;SDS011;68448;51.188;6.868;2023-04-24T11:56:02;16.33;;;6.10;;
29954;SDS011;68448;51.188;6.868;2023-04-24T11:58:34;11.73;;;4.83;;
29954;SDS011;68448;51.188;6.868;2023-04-24T12:01:01;16.10;;;6.20;;
29954;SDS011;68448;51.188;6.868;2023-04-24T12:03:28;8.27;;;5.00;;
29954;SDS011;68448;51.188;6.868;2023-04-24T12:06:05;10.77;;;4.70;;
29954;SDS011;68448;51.188;6.868;2023-04-24T12:08:33;10.40;;;5.30;;
29954;SDS011;68448;51.188;6.868;2023-04-24T12:11:04;14.97;;;4.70;;
29954;SDS011;68448;51.188;6.868;2023-04-24T12:13:31;5.90;;;3.80;;
29954;SDS011;68448;51.188;6.868;2023-04-24T12:15:58;7.57;;;4.50;;
29954;SDS011;68448;51.188;6.868;2023-04-24T12:18:25;11.80;;;3.50;;
29954;SDS011;68448;51.188;6.868;2023-04-24T12:20:52;8.00;;;3.87;;
29954;SDS011;68448;51.188;6.868;2023-04-24T12:23:37;8.60;;;3.53;;
29954;SDS011;68448;51.188;6.868;2023-04-24T12:26:04;9.53;;;4.33;;
29954;SDS011;68448;51.188;6.868;2023-04-24T12:28:34;15.13;;;4.90;;
29954;SDS011;68448;51.188;6.868;2023-04-24T12:31:02;7.73;;;3.23;;
29954;SDS011;68448;51.188;6.868;2023-04-24T12:33:32;9.57;;;3.30;;
29954;SDS011;68448;51.188;6.868;2023-04-24T12:35:59;6.23;;;3.57;;
29954;SDS011;68448;51.188;6.868;2023-04-24T12:38:27;8.80;;;3.27;;
29954;SDS011;68448;51.188;6.868;2023-04-24T12:41:02;6.37;;;3.20;;
29954;SDS011;68448;51.188;6.868;2023-04-24T12:43:29;10.57;;;3.20;;
29954;SDS011;68448;51.188;6.868;2023-04-24T12:45:56;4.07;;;2.23;;
29954;SDS011;68448;51.188;6.868;2023-04-24T12:48:24;3.43;;;2.47;;
29954;SDS011;68448;51.188;6.868;2023-04-24T12:50:51;7.27;;;2.80;;
29954;SDS011;68448;51.188;6.868;2023-04-24T12:53:18;7.07;;;2.80;;
29954;SDS011;68448;51.188;6.868;2023-04-24T12:55:45;4.90;;;3.30;;
29954;SDS011;68448;51.188;6.868;2023-04-24T12:58:14;4.50;;;2.30;;
29954;SDS011;68448;51.188;6.868;2023-04-24T13:00:41;8.00;;;2.20;;
29954;SDS011;68448;51.188;6.868;2023-04-24T13:03:08;4.40;;;2.60;;
29954;SDS011;68448;51.188;6.868;2023-04-24T13:05:36;3.30;;;1.93;;
29954;SDS011;68448;51.188;6.868;2023-04-24T13:08:03;1.83;;;1.67;;
29954;SDS011;68448;51.188;6.868;2023-04-24T13:10:30;3.30;;;2.33;;
29954;SDS011;68448;51.188;6.868;2023-04-24T13:12:57;9.60;;;1.70;;
29954;SDS011;68448;51.188;6.868;2023-04-24T13:15:25;4.77;;;1.80;;
29954;SDS011;68448;51.188;6.868;2023-04-24T13:17:52;3.30;;;1.97;;
29954;SDS011;68448;51.188;6.868;2023-04-24T13:20:20;3.60;;;2.73;;
29954;SDS011;68448;51.188;6.868;2023-04-24T13:22:47;5.77;;;3.20;;
29954;SDS011;68448;51.188;6.868;2023-04-24T13:25:14;2.20;;;2.10;;
29954;SDS011;68448;51.188;6.868;2023-04-24T13:27:41;3.17;;;1.93;;
29954;SDS011;68448;51.188;6.868;2023-04-24T13:30:08;2.87;;;1.80;;
29954;SDS011;68448;51.188;6.868;2023-04-24T13:32:37;3.47;;;1.63;;
29954;SDS011;68448;51.188;6.868;2023-04-24T13:35:04;5.63;;;2.50;;
29954;SDS011;68448;51.188;6.868;2023-04-24T13:37:32;5.93;;;2.50;;
29954;SDS011;68448;51.188;6.868;2023-04-24T13:39:59;3.33;;;1.70;;
29954;SDS011;68448;51.188;6.868;2023-04-24T13:42:26;4.67;;;2.23;;
29954;SDS011;68448;51.188;6.868;2023-04-24T13:44:53;4.77;;;2.43;;
29954;SDS011;68448;51.188;6.868;2023-04-24T13:47:20;5.20;;;2.60;;
29954;SDS011;68448;51.188;6.868;2023-04-24T13:49:48;3.67;;;2.17;;
29954;SDS011;68448;51.188;6.868;2023-04-24T13:52:15;5.30;;;2.00;;
29954;SDS011;68448;51.188;6.868;2023-04-24T13:54:42;5.17;;;2.60;;
29954;SDS011;68448;51.188;6.868;2023-04-24T13:57:10;6.50;;;2.53;;
29954;SDS011;68448;51.188;6.868;2023-04-24T13:59:37;3.60;;;2.20;;
29954;SDS011;68448;51.188;6.868;2023-04-24T14:02:04;1.90;;;1.80;;
29954;SDS011;68448;51.188;6.868;2023-04-24T14:04:32;2.87;;;2.20;;
29954;SDS011;68448;51.188;6.868;2023-04-24T14:07:00;5.63;;;2.17;;
29954;SDS011;68448;51.188;6.868;2023-04-24T14:09:27;6.77;;;3.40;;
29954;SDS011;68448;51.188;6.868;2023-04-24T14:11:54;3.87;;;1.73;;
29954;SDS011;68448;51.188;6.868;2023-04-24T14:14:22;3.30;;;1.77;;
29954;SDS011;68448;51.188;6.868;2023-04-24T14:16:49;4.20;;;1.97;;
29954;SDS011;68448;51.188;6.868;2023-04-24T14:19:16;5.53;;;2.23;;
29954;SDS011;68448;51.188;6.868;2023-04-24T14:21:43;5.23;;;1.93;;
29954;SDS011;68448;51.188;6.868;2023-04-24T14:24:12;4.10;;;2.40;;
29954;SDS011;68448;51.188;6.868;2023-04-24T14:26:39;5.77;;;2.63;;
29954;SDS011;68448;51.188;6.868;2023-04-24T14:29:06;5.43;;;2.23;;
29954;SDS011;68448;51.188;6.868;2023-04-24T14:31:40;5.43;;;2.20;;
29954;SDS011;68448;51.188;6.868;2023-04-24T14:34:08;3.60;;;1.97;;
29954;SDS011;68448;51.188;6.868;2023-04-24T14:36:36;3.10;;;1.83;;
29954;SDS011;68448;51.188;6.868;2023-04-24T14:39:03;5.07;;;2.27;;
29954;SDS011;68448;51.188;6.868;2023-04-24T14:41:32;2.53;;;1.50;;
29954;SDS011;68448;51.188;6.868;2023-04-24T14:43:59;5.40;;;2.20;;
29954;SDS011;68448;51.188;6.868;2023-04-24T14:46:26;3.70;;;1.90;;
29954;SDS011;68448;51.188;6.868;2023-04-24T14:48:54;2.57;;;1.83;;
29954;SDS011;68448;51.188;6.868;2023-04-24T14:51:21;4.63;;;2.37;;
29954;SDS011;68448;51.188;6.868;2023-04-24T14:53:48;3.03;;;1.40;;